createdAt,value
2018-01-21T00:02:41.468Z,0.60
2018-01-21T00:05:13.413Z,0.60
2018-01-21T00:07:43.956Z,0.60
2018-01-21T00:10:22.429Z,0.70
2018-01-21T00:13:05.541Z,0.80
2018-01-21T00:15:37.686Z,0.87
2018-01-21T00:18:10.031Z,1.13
2018-01-21T00:20:38.541Z,1.23
2018-01-21T00:23:12.143Z,1.20
2018-01-21T00:25:48.728Z,1.37
2018-01-21T00:28:26.717Z,1.27
2018-01-21T00:30:55.852Z,1.10
2018-01-21T00:33:39.272Z,1.43
2018-01-21T00:36:14.085Z,1.40
2018-01-21T00:38:49.549Z,1.30
2018-01-21T00:41:18.740Z,1.60
2018-01-21T00:43:53.196Z,1.23
2018-01-21T00:46:32.163Z,1.30
2018-01-21T00:49:11.760Z,2.37
2018-01-21T00:51:45.564Z,2.17
2018-01-21T00:54:28.211Z,1.90
2018-01-21T00:56:59.591Z,1.70
2018-01-21T00:59:33.139Z,1.80
2018-01-21T01:02:08.620Z,1.50
2018-01-21T01:04:43.460Z,1.50
2018-01-21T01:07:15.847Z,1.90
2018-01-21T01:09:47.501Z,1.60
2018-01-21T01:12:23.117Z,1.70
2018-01-21T01:14:59.364Z,1.37
2018-01-21T01:17:35.302Z,1.83
2018-01-21T01:20:17.734Z,1.40
2018-01-21T01:22:49.544Z,1.30
2018-01-21T01:25:21.951Z,0.97
2018-01-21T01:28:04.776Z,1.00
2018-01-21T01:30:33.077Z,0.90
2018-01-21T01:33:06.121Z,0.70
2018-01-21T01:35:45.176Z,0.70
2018-01-21T01:38:14.841Z,0.87
2018-01-21T01:40:43.971Z,0.80
2018-01-21T01:43:18.326Z,0.83
2018-01-21T01:45:50.157Z,0.77
2018-01-21T01:48:20.575Z,0.83
2018-01-21T01:50:53.915Z,1.00
2018-01-21T01:53:27.056Z,1.20
2018-01-21T01:55:56.083Z,0.97
2018-01-21T01:58:25.648Z,1.10
2018-01-21T02:00:53.848Z,1.00
2018-01-21T02:06:03.882Z,1.40
2018-01-21T02:08:36.823Z,1.00
2018-01-21T02:11:10.291Z,0.90
2018-01-21T02:13:54.998Z,0.83
2018-01-21T02:16:25.893Z,0.77
2018-01-21T02:19:03.143Z,0.50
2018-01-21T02:21:33.103Z,0.60
2018-01-21T02:24:03.567Z,0.67
2018-01-21T02:26:41.688Z,0.53
2018-01-21T02:29:24.683Z,0.50
2018-01-21T02:32:07.813Z,0.53
2018-01-21T02:34:36.557Z,0.50
2018-01-21T02:37:16.590Z,0.60
2018-01-21T02:39:49.265Z,0.50
2018-01-21T02:42:30.151Z,0.50
2018-01-21T02:45:00.107Z,0.50
2018-01-21T02:47:36.442Z,0.50
2018-01-21T02:50:10.410Z,0.70
2018-01-21T02:52:50.423Z,0.50
2018-01-21T02:55:35.058Z,0.50
2018-01-21T02:58:12.899Z,0.60
2018-01-21T03:01:01.328Z,0.40
2018-01-21T03:03:32.304Z,0.50
2018-01-21T03:06:02.814Z,0.50
2018-01-21T03:08:36.016Z,0.50
2018-01-21T03:11:06.634Z,0.40
2018-01-21T03:13:46.666Z,0.60
2018-01-21T03:16:15.627Z,0.50
2018-01-21T03:18:48.204Z,0.50
2018-01-21T03:21:22.547Z,0.50
2018-01-21T03:24:02.338Z,0.50
2018-01-21T03:26:34.861Z,0.50
2018-01-21T03:29:13.002Z,0.50
2018-01-21T03:31:42.985Z,0.60
2018-01-21T03:34:13.614Z,0.50
2018-01-21T03:36:48.811Z,0.50
2018-01-21T03:39:32.436Z,0.50
2018-01-21T03:42:01.792Z,0.60
2018-01-21T03:44:36.787Z,0.50
2018-01-21T03:47:13.010Z,0.60
2018-01-21T03:49:45.026Z,0.70
2018-01-21T03:52:17.731Z,0.50
2018-01-21T03:54:57.641Z,0.60
2018-01-21T03:57:29.379Z,0.50
2018-01-21T04:00:07.436Z,0.60
2018-01-21T04:02:41.570Z,0.60
2018-01-21T04:05:09.810Z,0.70
2018-01-21T04:07:37.790Z,0.83
2018-01-21T04:10:08.911Z,0.80
2018-01-21T04:12:39.389Z,0.50
2018-01-21T04:15:11.379Z,0.50
2018-01-21T04:17:40.124Z,0.60
2018-01-21T04:20:16.493Z,0.50
2018-01-21T04:22:55.882Z,0.50
2018-01-21T04:25:25.347Z,0.50
2018-01-21T04:27:55.250Z,2.07
2018-01-21T04:30:32.240Z,0.60
2018-01-21T04:33:04.508Z,0.53
2018-01-21T04:35:39.861Z,0.50
2018-01-21T04:38:16.989Z,0.50
2018-01-21T04:40:51.510Z,0.50
2018-01-21T04:43:26.003Z,0.60
2018-01-21T04:45:54.752Z,0.50
2018-01-21T04:48:25.814Z,0.50
2018-01-21T04:50:58.295Z,0.50
2018-01-21T04:53:42.645Z,0.50
2018-01-21T04:56:15.063Z,0.60
2018-01-21T04:58:43.089Z,0.50
2018-01-21T05:01:24.189Z,0.50
2018-01-21T05:03:56.960Z,0.60
2018-01-21T05:06:33.896Z,0.50
2018-01-21T05:09:18.258Z,0.40
2018-01-21T05:11:55.075Z,0.60
2018-01-21T05:14:36.925Z,0.50
2018-01-21T05:17:16.150Z,0.70
2018-01-21T05:19:49.358Z,0.50
2018-01-21T05:22:18.410Z,0.50
2018-01-21T05:24:51.093Z,0.70
2018-01-21T05:27:19.190Z,0.50
2018-01-21T05:29:53.473Z,0.80
2018-01-21T05:32:21.466Z,1.20
2018-01-21T05:34:49.785Z,0.73
2018-01-21T05:37:24.465Z,0.70
2018-01-21T05:39:55.593Z,0.60
2018-01-21T05:42:38.718Z,0.50
2018-01-21T05:45:07.422Z,0.50
2018-01-21T05:47:39.100Z,0.60
2018-01-21T05:50:11.143Z,0.53
2018-01-21T05:52:42.835Z,0.50
2018-01-21T05:55:35.741Z,0.50
2018-01-21T05:58:08.613Z,0.50
2018-01-21T06:00:36.898Z,0.50
2018-01-21T06:06:20.354Z,0.50
2018-01-21T06:08:48.266Z,0.50
2018-01-21T06:11:17.045Z,0.60
2018-01-21T06:13:47.261Z,0.60
2018-01-21T06:16:17.698Z,0.60
2018-01-21T06:18:57.519Z,0.53
2018-01-21T06:21:26.199Z,0.50
2018-01-21T06:23:54.163Z,0.60
2018-01-21T06:26:22.025Z,0.90
2018-01-21T06:28:49.770Z,0.77
2018-01-21T06:31:17.580Z,0.63
2018-01-21T06:33:45.616Z,0.90
2018-01-21T06:36:13.492Z,0.70
2018-01-21T06:38:41.348Z,0.77
2018-01-21T06:41:10.057Z,0.73
2018-01-21T06:43:39.369Z,0.83
2018-01-21T06:46:07.305Z,0.80
2018-01-21T06:48:35.181Z,0.70
2018-01-21T06:51:03.034Z,0.83
2018-01-21T06:53:30.915Z,0.60
2018-01-21T06:55:58.700Z,0.87
2018-01-21T06:58:26.634Z,0.80
2018-01-21T07:00:54.505Z,0.90
2018-01-21T07:03:22.253Z,1.03
2018-01-21T07:05:50.383Z,0.90
2018-01-21T07:08:24.040Z,0.80
2018-01-21T07:10:52.010Z,0.80
2018-01-21T07:13:19.977Z,0.80
2018-01-21T07:15:47.932Z,0.97
2018-01-21T07:18:15.822Z,0.67
2018-01-21T07:20:43.680Z,0.70
2018-01-21T07:23:12.279Z,0.60
2018-01-21T07:25:40.232Z,0.60
2018-01-21T07:28:08.965Z,0.70
2018-01-21T07:30:37.790Z,1.17
2018-01-21T07:33:05.771Z,0.90
2018-01-21T07:35:34.996Z,1.20
2018-01-21T07:38:02.912Z,0.80
2018-01-21T07:40:30.817Z,0.70
2018-01-21T07:42:59.616Z,0.60
2018-01-21T07:45:27.538Z,0.70
2018-01-21T07:47:55.301Z,0.53
2018-01-21T07:50:23.112Z,0.60
2018-01-21T07:52:52.007Z,0.70
2018-01-21T07:55:20.181Z,0.63
2018-01-21T07:57:48.024Z,0.90
2018-01-21T08:00:15.967Z,0.93
2018-01-21T08:02:44.164Z,1.00
2018-01-21T08:05:12.550Z,1.10
2018-01-21T08:07:41.026Z,0.80
2018-01-21T08:10:18.397Z,0.87
2018-01-21T08:12:51.831Z,0.93
2018-01-21T08:15:19.712Z,0.80
2018-01-21T08:17:48.740Z,0.70
2018-01-21T08:20:18.447Z,1.10
2018-01-21T08:22:47.599Z,0.80
2018-01-21T08:25:16.602Z,1.00
2018-01-21T08:27:45.563Z,1.10
2018-01-21T08:30:15.360Z,0.80
2018-01-21T08:32:43.552Z,1.10
2018-01-21T08:35:17.192Z,0.97
2018-01-21T08:37:52.296Z,1.00
2018-01-21T08:40:28.108Z,1.30
2018-01-21T08:42:56.688Z,1.20
2018-01-21T08:45:24.792Z,1.10
2018-01-21T08:47:53.184Z,1.70
2018-01-21T08:50:21.785Z,2.60
2018-01-21T08:52:50.050Z,1.90
2018-01-21T08:55:21.260Z,4.20
2018-01-21T08:57:49.889Z,7.63
2018-01-21T09:00:24.996Z,1.97
2018-01-21T09:03:02.737Z,2.10
2018-01-21T09:05:36.157Z,2.27
2018-01-21T09:08:04.998Z,2.70
2018-01-21T09:10:32.785Z,2.20
2018-01-21T09:13:01.985Z,2.47
2018-01-21T09:15:31.654Z,2.30
2018-01-21T09:17:59.433Z,1.67
2018-01-21T09:20:27.313Z,2.60
2018-01-21T09:22:55.352Z,1.93
2018-01-21T09:25:23.333Z,1.60
2018-01-21T09:27:51.394Z,2.00
2018-01-21T09:30:19.562Z,2.40
2018-01-21T09:32:47.546Z,2.53
2018-01-21T09:35:15.421Z,2.87
2018-01-21T09:37:43.531Z,2.70
2018-01-21T09:40:12.263Z,2.40
2018-01-21T09:42:40.363Z,2.43
2018-01-21T09:45:09.037Z,2.20
2018-01-21T09:47:38.112Z,5.07
2018-01-21T09:50:06.729Z,3.40
2018-01-21T09:52:40.705Z,3.33
2018-01-21T09:55:09.767Z,3.87
2018-01-21T09:57:38.829Z,34.80
2018-01-21T10:00:07.605Z,28.13
2018-01-21T10:02:37.029Z,33.73
2018-01-21T10:05:06.906Z,30.73
2018-01-21T10:07:37.122Z,6.50
2018-01-21T10:10:06.625Z,50.60
2018-01-21T10:12:34.879Z,14.90
2018-01-21T10:15:03.120Z,3.60
2018-01-21T10:17:31.958Z,17.27
2018-01-21T10:19:59.947Z,13.43
2018-01-21T10:22:27.797Z,3.10
2018-01-21T10:24:56.396Z,2.60
2018-01-21T10:27:24.382Z,3.17
2018-01-21T10:29:52.444Z,5.37
2018-01-21T10:32:20.397Z,4.17
2018-01-21T10:34:48.581Z,5.87
2018-01-21T10:37:18.168Z,4.27
2018-01-21T10:39:50.014Z,3.57
2018-01-21T10:42:24.805Z,4.43
2018-01-21T10:44:56.148Z,4.33
2018-01-21T10:47:24.712Z,3.67
2018-01-21T10:49:52.893Z,4.53
2018-01-21T10:52:20.740Z,3.80
2018-01-21T10:54:49.132Z,3.47
2018-01-21T10:57:18.204Z,2.47
2018-01-21T10:59:46.172Z,3.07
2018-01-21T11:02:14.140Z,2.33
2018-01-21T11:04:41.922Z,3.17
2018-01-21T11:07:10.201Z,3.40
2018-01-21T11:09:38.087Z,3.30
2018-01-21T11:12:13.079Z,3.50
2018-01-21T11:14:41.107Z,2.83
2018-01-21T11:17:10.906Z,3.13
2018-01-21T11:19:39.510Z,1.97
2018-01-21T11:22:08.820Z,1.40
2018-01-21T11:24:52.689Z,2.30
2018-01-21T11:27:20.677Z,2.30
2018-01-21T11:29:48.913Z,2.80
2018-01-21T11:32:17.660Z,2.10
2018-01-21T11:34:45.797Z,2.00
2018-01-21T11:37:19.756Z,1.90
2018-01-21T11:39:48.595Z,1.73
2018-01-21T11:42:18.817Z,2.00
2018-01-21T11:44:47.398Z,2.10
2018-01-21T11:47:16.165Z,1.70
2018-01-21T11:49:45.318Z,2.00
2018-01-21T11:52:14.374Z,2.10
2018-01-21T11:54:45.130Z,2.10
2018-01-21T11:57:13.287Z,1.93
2018-01-21T11:59:43.581Z,2.50
2018-01-21T12:02:11.881Z,2.13
2018-01-21T12:04:44.433Z,2.50
2018-01-21T12:07:12.345Z,2.80
2018-01-21T12:09:40.318Z,2.30
2018-01-21T12:12:08.208Z,2.20
2018-01-21T12:14:36.871Z,2.63
2018-01-21T12:17:06.076Z,2.47
2018-01-21T12:19:35.242Z,2.30
2018-01-21T12:22:04.134Z,2.47
2018-01-21T12:24:44.206Z,2.40
2018-01-21T12:27:13.895Z,2.67
2018-01-21T12:29:45.337Z,1.83
2018-01-21T12:32:19.969Z,2.83
2018-01-21T12:34:50.352Z,4.30
2018-01-21T12:37:19.126Z,2.57
2018-01-21T12:39:48.280Z,3.00
2018-01-21T12:42:16.353Z,2.90
2018-01-21T12:44:48.928Z,2.73
2018-01-21T12:47:18.357Z,2.30
2018-01-21T12:49:47.631Z,2.40
2018-01-21T12:52:15.522Z,2.13
2018-01-21T12:54:43.773Z,2.57
2018-01-21T12:57:12.598Z,2.13
2018-01-21T12:59:40.483Z,2.00
2018-01-21T13:02:09.145Z,2.53
2018-01-21T13:04:37.078Z,2.43
2018-01-21T13:07:04.966Z,2.20
2018-01-21T13:09:33.221Z,1.90
2018-01-21T13:12:01.295Z,2.80
2018-01-21T13:14:29.264Z,3.10
2018-01-21T13:16:57.247Z,3.17
2018-01-21T13:19:25.200Z,2.67
2018-01-21T13:21:55.135Z,2.53
2018-01-21T13:24:24.840Z,1.80
2018-01-21T13:26:53.306Z,2.30
2018-01-21T13:29:23.346Z,2.07
2018-01-21T13:31:55.263Z,1.90
2018-01-21T13:34:23.458Z,2.40
2018-01-21T13:36:51.427Z,1.80
2018-01-21T13:39:19.618Z,2.40
2018-01-21T13:41:47.489Z,2.50
2018-01-21T13:44:15.438Z,1.73
2018-01-21T13:46:43.329Z,2.13
2018-01-21T13:49:12.097Z,2.03
2018-01-21T13:51:40.761Z,2.10
2018-01-21T13:54:08.661Z,2.10
2018-01-21T13:56:36.640Z,1.70
2018-01-21T13:59:05.739Z,1.77
2018-01-21T14:01:33.711Z,2.17
2018-01-21T14:04:01.471Z,3.50
2018-01-21T14:06:29.324Z,2.53
2018-01-21T14:08:57.308Z,6.90
2018-01-21T14:11:25.264Z,3.23
2018-01-21T14:13:53.117Z,1.80
2018-01-21T14:16:20.992Z,1.70
2018-01-21T14:18:48.858Z,2.30
2018-01-21T14:21:16.830Z,2.30
2018-01-21T14:23:45.817Z,1.80
2018-01-21T14:26:13.769Z,1.47
2018-01-21T14:28:41.675Z,2.60
2018-01-21T14:31:13.438Z,2.97
2018-01-21T14:33:44.905Z,2.37
2018-01-21T14:36:13.844Z,2.80
2018-01-21T14:38:45.754Z,2.67
2018-01-21T14:41:23.671Z,2.70
2018-01-21T14:43:55.623Z,2.20
2018-01-21T14:46:24.081Z,3.13
2018-01-21T14:48:54.748Z,2.90
2018-01-21T14:51:24.118Z,2.87
2018-01-21T14:53:53.853Z,2.80
2018-01-21T14:56:26.562Z,2.90
2018-01-21T14:58:56.789Z,2.80
2018-01-21T15:01:25.918Z,3.13
2018-01-21T15:03:59.699Z,3.70
2018-01-21T15:06:33.965Z,3.57
2018-01-21T15:09:07.752Z,2.73
2018-01-21T15:11:37.510Z,3.47
2018-01-21T15:14:10.414Z,3.50
2018-01-21T15:16:44.420Z,3.40
2018-01-21T15:19:12.753Z,3.90
2018-01-21T15:21:42.461Z,4.12
2018-01-21T15:24:26.440Z,4.40
2018-01-21T15:26:57.289Z,4.63
2018-01-21T15:29:25.529Z,5.80
2018-01-21T15:31:53.832Z,5.20
2018-01-21T15:34:22.086Z,5.53
2018-01-21T15:36:50.040Z,5.13
2018-01-21T15:39:18.998Z,4.40
2018-01-21T15:41:47.797Z,4.50
2018-01-21T15:44:15.864Z,6.20
2018-01-21T15:46:44.641Z,5.87
2018-01-21T15:49:12.797Z,5.20
2018-01-21T15:51:40.928Z,5.50
2018-01-21T15:54:09.140Z,5.30
2018-01-21T15:56:37.112Z,5.50
2018-01-21T15:59:05.108Z,6.77
2018-01-21T16:01:33.085Z,13.30
2018-01-21T16:04:00.958Z,16.77
2018-01-21T16:06:29.708Z,15.97
2018-01-21T16:08:57.900Z,14.10
2018-01-21T16:11:25.873Z,12.80
2018-01-21T16:13:55.303Z,10.40
2018-01-21T16:16:24.064Z,11.70
2018-01-21T16:18:53.998Z,10.33
2018-01-21T16:21:23.262Z,12.80
2018-01-21T16:23:51.289Z,11.43
2018-01-21T16:26:19.430Z,9.93
2018-01-21T16:28:48.011Z,10.90
2018-01-21T16:31:16.160Z,11.60
2018-01-21T16:33:44.433Z,13.80
2018-01-21T16:36:18.442Z,11.83
2018-01-21T16:38:55.417Z,11.37
2018-01-21T16:41:23.503Z,11.30
2018-01-21T16:43:51.906Z,11.23
2018-01-21T16:46:20.884Z,10.07
2018-01-21T16:48:49.207Z,10.20
2018-01-21T16:51:17.792Z,11.00
2018-01-21T16:53:46.097Z,8.53
2018-01-21T16:56:14.250Z,11.07
2018-01-21T16:58:42.241Z,10.73
2018-01-21T17:01:10.137Z,14.27
2018-01-21T17:03:38.182Z,34.43
2018-01-21T17:06:07.329Z,15.07
2018-01-21T17:08:35.979Z,9.63
2018-01-21T17:11:04.742Z,7.57
2018-01-21T17:13:32.839Z,7.07
2018-01-21T17:16:01.617Z,7.37
2018-01-21T17:18:30.500Z,7.07
2018-01-21T17:21:19.883Z,8.57
2018-01-21T17:23:48.681Z,8.63
2018-01-21T17:26:17.138Z,9.20
2018-01-21T17:29:02.993Z,10.03
2018-01-21T17:31:37.770Z,13.00
2018-01-21T17:34:34.791Z,13.57
2018-01-21T17:37:13.502Z,14.77
2018-01-21T17:39:58.726Z,13.47
2018-01-21T17:42:38.055Z,13.17
2018-01-21T17:48:08.059Z,10.97
2018-01-21T17:54:18.882Z,9.90
2018-01-21T17:56:58.507Z,18.80
2018-01-21T18:17:45.450Z,14.67
2018-01-21T18:20:13.399Z,16.03
2018-01-21T18:22:53.710Z,18.57
2018-01-21T18:25:25.113Z,19.50
2018-01-21T18:27:56.847Z,24.07
2018-01-21T18:30:26.418Z,18.53
2018-01-21T18:33:05.272Z,28.90
2018-01-21T18:35:43.695Z,14.47
2018-01-21T18:38:11.612Z,12.57
2018-01-21T18:40:43.476Z,16.97
2018-01-21T18:43:15.230Z,53.77
2018-01-21T18:45:48.998Z,33.53
2018-01-21T18:48:18.500Z,20.00
2018-01-21T18:50:52.614Z,42.40
2018-01-21T18:53:20.513Z,30.33
2018-01-21T18:55:48.528Z,45.40
2018-01-21T18:58:16.448Z,15.07
2018-01-21T19:00:44.388Z,14.67
2018-01-21T19:03:12.353Z,17.27
2018-01-21T19:05:40.302Z,13.83
2018-01-21T19:08:08.192Z,12.30
2018-01-21T19:10:36.177Z,90.10
2018-01-21T19:13:04.270Z,61.77
2018-01-21T19:15:35.432Z,18.33
2018-01-21T19:18:04.300Z,7.13
2018-01-21T19:20:33.010Z,9.13
2018-01-21T19:23:00.831Z,8.13
2018-01-21T19:25:28.991Z,7.47
2018-01-21T19:27:57.408Z,34.10
2018-01-21T19:30:26.176Z,23.13
2018-01-21T19:32:54.142Z,6.30
2018-01-21T19:35:22.199Z,7.40
2018-01-21T19:37:50.162Z,6.90
2018-01-21T19:40:34.559Z,6.03
2018-01-21T19:43:12.013Z,5.23
2018-01-21T19:45:40.294Z,4.77
2018-01-21T19:48:08.408Z,4.37
2018-01-21T19:50:36.549Z,3.70
2018-01-21T19:53:04.701Z,3.70
2018-01-21T19:55:32.593Z,4.00
2018-01-21T19:58:00.744Z,4.10
2018-01-21T20:00:28.813Z,4.80
2018-01-21T20:02:56.807Z,3.30
2018-01-21T20:05:24.691Z,4.40
2018-01-21T20:07:53.435Z,4.73
2018-01-21T20:10:21.417Z,4.80
2018-01-21T20:12:51.438Z,3.47
2018-01-21T20:15:19.922Z,2.97
2018-01-21T20:17:47.897Z,2.60
2018-01-21T20:20:15.901Z,3.00
2018-01-21T20:22:44.701Z,1.97
2018-01-21T20:25:12.757Z,1.50
2018-01-21T20:27:41.621Z,1.60
2018-01-21T20:30:09.681Z,1.83
2018-01-21T20:32:37.637Z,2.03
2018-01-21T20:35:05.531Z,2.27
2018-01-21T20:37:34.111Z,4.73
2018-01-21T20:40:02.060Z,4.00
2018-01-21T20:42:31.668Z,3.50
2018-01-21T20:44:59.464Z,2.40
2018-01-21T20:47:27.261Z,2.10
2018-01-21T20:49:55.696Z,2.17
2018-01-21T20:52:29.110Z,3.70
2018-01-21T20:54:57.773Z,2.77
2018-01-21T20:57:25.640Z,2.40
2018-01-21T20:59:53.516Z,1.83
2018-01-21T21:02:22.232Z,1.57
2018-01-21T21:04:50.140Z,3.37
2018-01-21T21:07:18.110Z,3.87
2018-01-21T21:09:46.195Z,2.20
2018-01-21T21:12:14.178Z,2.70
2018-01-21T21:14:42.111Z,2.27
2018-01-21T21:17:10.184Z,5.27
2018-01-21T21:19:38.290Z,8.17
2018-01-21T21:22:07.458Z,12.27
2018-01-21T21:24:36.234Z,13.03
2018-01-21T21:27:04.203Z,13.70
2018-01-21T21:29:32.274Z,16.10
2018-01-21T21:32:00.296Z,15.93
2018-01-21T21:34:29.154Z,11.60
2018-01-21T21:36:58.630Z,16.77
2018-01-21T21:39:27.998Z,19.87
2018-01-21T21:41:58.249Z,18.33
2018-01-21T21:44:32.103Z,13.27
2018-01-21T21:47:15.907Z,14.20
2018-01-21T21:49:48.004Z,12.50
2018-01-21T21:52:20.090Z,12.80
2018-01-21T21:54:55.342Z,13.00
2018-01-21T21:57:30.562Z,12.50
2018-01-21T22:00:04.330Z,12.20
2018-01-21T22:02:36.698Z,12.97
2018-01-21T22:05:09.779Z,12.80
2018-01-21T22:07:45.689Z,13.90
2018-01-21T22:10:17.980Z,13.50
2018-01-21T22:12:47.572Z,12.77
2018-01-21T22:15:17.353Z,13.40
2018-01-21T22:18:00.727Z,12.67
2018-01-21T22:20:33.134Z,13.60
2018-01-21T22:23:02.456Z,13.20
2018-01-21T22:25:30.602Z,13.17
2018-01-21T22:28:02.549Z,11.50
2018-01-21T22:30:36.372Z,10.97
2018-01-21T22:33:05.955Z,11.37
2018-01-21T22:35:36.396Z,9.13
2018-01-21T22:38:06.103Z,8.00
2018-01-21T22:40:38.893Z,5.57
2018-01-21T22:43:09.422Z,4.20
2018-01-21T22:45:39.382Z,4.00
2018-01-21T22:48:07.570Z,5.13
2018-01-21T22:50:38.516Z,7.40
2018-01-21T22:53:07.853Z,5.57
2018-01-21T22:55:37.079Z,8.73
2018-01-21T22:58:09.347Z,8.77
2018-01-21T23:00:42.520Z,10.93
2018-01-21T23:03:18.357Z,8.90
2018-01-21T23:05:47.636Z,8.00
2018-01-21T23:08:18.348Z,8.53
2018-01-21T23:10:52.522Z,7.83
2018-01-21T23:13:23.509Z,10.53
2018-01-21T23:15:52.555Z,10.13
2018-01-21T23:18:21.598Z,11.13
2018-01-21T23:20:58.355Z,11.67
2018-01-21T23:23:29.952Z,13.00
2018-01-21T23:26:01.019Z,13.13
2018-01-21T23:28:36.278Z,12.47
2018-01-21T23:31:04.974Z,10.73
2018-01-21T23:33:41.279Z,10.73
2018-01-21T23:36:15.555Z,9.90
2018-01-21T23:38:44.496Z,8.70
2018-01-21T23:41:19.391Z,7.57
2018-01-21T23:43:49.777Z,6.70
2018-01-21T23:46:21.055Z,5.93
2018-01-21T23:48:50.155Z,5.77
2018-01-21T23:51:23.081Z,5.30
2018-01-21T23:53:53.594Z,6.10
2018-01-21T23:56:23.100Z,5.80
2018-01-21T23:59:00.238Z,6.17
